sensor_id;sensor_type;location;lat;lon;timestamp;P1;durP1;ratioP1;P2;durP2;ratioP2
9854;SDS011;4966;48.112;9.282;2022-08-21T00:01:57;46.50;;;1.77;;
9854;SDS011;4966;48.112;9.282;2022-08-21T00:04:22;43.13;;;1.77;;
9854;SDS011;4966;48.112;9.282;2022-08-21T00:06:49;55.20;;;2.95;;
9854;SDS011;4966;48.112;9.282;2022-08-21T00:09:15;62.40;;;2.72;;
9854;SDS011;4966;48.112;9.282;2022-08-21T00:11:41;75.47;;;1.90;;
9854;SDS011;4966;48.112;9.282;2022-08-21T00:14:06;58.00;;;4.35;;
9854;SDS011;4966;48.112;9.282;2022-08-21T00:16:33;57.35;;;3.17;;
9854;SDS011;4966;48.112;9.282;2022-08-21T00:18:59;57.05;;;2.78;;
9854;SDS011;4966;48.112;9.282;2022-08-21T00:21:25;46.85;;;2.55;;
9854;SDS011;4966;48.112;9.282;2022-08-21T00:23:50;57.97;;;2.45;;
9854;SDS011;4966;48.112;9.282;2022-08-21T00:26:16;76.07;;;4.18;;
9854;SDS011;4966;48.112;9.282;2022-08-21T00:28:42;51.72;;;2.58;;
9854;SDS011;4966;48.112;9.282;2022-08-21T00:31:07;56.67;;;2.03;;
9854;SDS011;4966;48.112;9.282;2022-08-21T00:33:34;50.65;;;2.42;;
9854;SDS011;4966;48.112;9.282;2022-08-21T00:35:59;30.73;;;2.35;;
9854;SDS011;4966;48.112;9.282;2022-08-21T00:38:26;36.78;;;1.80;;
9854;SDS011;4966;48.112;9.282;2022-08-21T00:40:53;56.05;;;3.50;;
9854;SDS011;4966;48.112;9.282;2022-08-21T00:45:47;21.92;;;1.50;;
9854;SDS011;4966;48.112;9.282;2022-08-21T00:48:13;15.02;;;1.00;;
9854;SDS011;4966;48.112;9.282;2022-08-21T00:50:42;24.70;;;1.63;;
9854;SDS011;4966;48.112;9.282;2022-08-21T00:53:11;15.18;;;1.55;;
9854;SDS011;4966;48.112;9.282;2022-08-21T00:55:38;17.00;;;1.40;;
9854;SDS011;4966;48.112;9.282;2022-08-21T00:58:05;42.30;;;1.52;;
9854;SDS011;4966;48.112;9.282;2022-08-21T01:00:35;17.50;;;1.08;;
9854;SDS011;4966;48.112;9.282;2022-08-21T01:03:05;19.83;;;1.20;;
9854;SDS011;4966;48.112;9.282;2022-08-21T01:05:32;11.30;;;1.00;;
9854;SDS011;4966;48.112;9.282;2022-08-21T01:07:57;5.38;;;1.27;;
9854;SDS011;4966;48.112;9.282;2022-08-21T01:10:23;10.55;;;0.80;;
9854;SDS011;4966;48.112;9.282;2022-08-21T01:12:50;6.53;;;1.00;;
9854;SDS011;4966;48.112;9.282;2022-08-21T01:15:20;9.00;;;1.00;;
9854;SDS011;4966;48.112;9.282;2022-08-21T01:17:48;3.13;;;0.93;;
9854;SDS011;4966;48.112;9.282;2022-08-21T01:20:14;5.47;;;1.02;;
9854;SDS011;4966;48.112;9.282;2022-08-21T01:22:41;11.68;;;1.00;;
9854;SDS011;4966;48.112;9.282;2022-08-21T01:25:07;1.48;;;0.90;;
9854;SDS011;4966;48.112;9.282;2022-08-21T01:27:34;9.25;;;1.20;;
9854;SDS011;4966;48.112;9.282;2022-08-21T01:30:22;7.63;;;1.10;;
9854;SDS011;4966;48.112;9.282;2022-08-21T01:32:48;5.90;;;1.00;;
9854;SDS011;4966;48.112;9.282;2022-08-21T01:35:14;4.55;;;1.10;;
9854;SDS011;4966;48.112;9.282;2022-08-21T01:37:41;10.88;;;1.25;;
9854;SDS011;4966;48.112;9.282;2022-08-21T01:40:07;12.23;;;1.17;;
9854;SDS011;4966;48.112;9.282;2022-08-21T01:42:33;16.23;;;1.10;;
9854;SDS011;4966;48.112;9.282;2022-08-21T01:44:59;18.23;;;1.25;;
9854;SDS011;4966;48.112;9.282;2022-08-21T01:47:25;14.98;;;1.30;;
9854;SDS011;4966;48.112;9.282;2022-08-21T01:49:50;34.97;;;1.55;;
9854;SDS011;4966;48.112;9.282;2022-08-21T01:52:16;29.00;;;1.90;;
9854;SDS011;4966;48.112;9.282;2022-08-21T01:54:42;18.20;;;1.40;;
9854;SDS011;4966;48.112;9.282;2022-08-21T01:57:08;22.67;;;1.30;;
9854;SDS011;4966;48.112;9.282;2022-08-21T01:59:35;15.70;;;1.70;;
9854;SDS011;4966;48.112;9.282;2022-08-21T02:02:00;28.08;;;1.23;;
9854;SDS011;4966;48.112;9.282;2022-08-21T02:04:26;20.52;;;1.10;;
9854;SDS011;4966;48.112;9.282;2022-08-21T02:06:52;21.45;;;1.13;;
9854;SDS011;4966;48.112;9.282;2022-08-21T02:09:18;34.63;;;1.63;;
9854;SDS011;4966;48.112;9.282;2022-08-21T02:11:44;29.90;;;1.30;;
9854;SDS011;4966;48.112;9.282;2022-08-21T02:14:10;27.17;;;1.40;;
9854;SDS011;4966;48.112;9.282;2022-08-21T02:16:38;24.20;;;1.40;;
9854;SDS011;4966;48.112;9.282;2022-08-21T02:19:05;12.70;;;1.00;;
9854;SDS011;4966;48.112;9.282;2022-08-21T02:21:32;20.67;;;1.30;;
9854;SDS011;4966;48.112;9.282;2022-08-21T02:23:57;6.50;;;1.10;;
9854;SDS011;4966;48.112;9.282;2022-08-21T02:26:23;21.20;;;1.25;;
9854;SDS011;4966;48.112;9.282;2022-08-21T02:28:49;28.25;;;2.13;;
9854;SDS011;4966;48.112;9.282;2022-08-21T02:31:14;22.80;;;1.10;;
9854;SDS011;4966;48.112;9.282;2022-08-21T02:33:40;24.52;;;1.50;;
9854;SDS011;4966;48.112;9.282;2022-08-21T02:36:06;14.18;;;0.80;;
9854;SDS011;4966;48.112;9.282;2022-08-21T02:38:33;6.60;;;0.93;;
9854;SDS011;4966;48.112;9.282;2022-08-21T02:41:02;13.82;;;1.15;;
9854;SDS011;4966;48.112;9.282;2022-08-21T02:43:29;19.45;;;1.10;;
9854;SDS011;4966;48.112;9.282;2022-08-21T02:45:55;23.48;;;1.20;;
9854;SDS011;4966;48.112;9.282;2022-08-21T02:48:22;32.03;;;1.55;;
9854;SDS011;4966;48.112;9.282;2022-08-21T02:50:52;33.83;;;1.60;;
9854;SDS011;4966;48.112;9.282;2022-08-21T02:53:20;26.35;;;1.30;;
9854;SDS011;4966;48.112;9.282;2022-08-21T02:55:46;40.88;;;1.60;;
9854;SDS011;4966;48.112;9.282;2022-08-21T02:58:13;30.52;;;1.83;;
9854;SDS011;4966;48.112;9.282;2022-08-21T03:00:41;17.88;;;1.20;;
9854;SDS011;4966;48.112;9.282;2022-08-21T03:03:07;17.35;;;1.25;;
9854;SDS011;4966;48.112;9.282;2022-08-21T03:05:33;19.17;;;1.08;;
9854;SDS011;4966;48.112;9.282;2022-08-21T03:08:01;14.98;;;1.10;;
9854;SDS011;4966;48.112;9.282;2022-08-21T03:10:27;11.63;;;0.98;;
9854;SDS011;4966;48.112;9.282;2022-08-21T03:12:53;33.60;;;1.55;;
9854;SDS011;4966;48.112;9.282;2022-08-21T03:15:20;43.10;;;2.30;;
9854;SDS011;4966;48.112;9.282;2022-08-21T03:17:49;28.30;;;1.60;;
9854;SDS011;4966;48.112;9.282;2022-08-21T03:20:16;14.98;;;1.10;;
9854;SDS011;4966;48.112;9.282;2022-08-21T03:22:44;6.32;;;1.25;;
9854;SDS011;4966;48.112;9.282;2022-08-21T03:25:09;10.10;;;1.05;;
9854;SDS011;4966;48.112;9.282;2022-08-21T03:27:35;9.43;;;0.80;;
9854;SDS011;4966;48.112;9.282;2022-08-21T03:30:02;23.05;;;1.13;;
9854;SDS011;4966;48.112;9.282;2022-08-21T03:32:29;22.88;;;2.92;;
9854;SDS011;4966;48.112;9.282;2022-08-21T03:34:56;18.33;;;1.55;;
9854;SDS011;4966;48.112;9.282;2022-08-21T03:37:22;42.28;;;2.70;;
9854;SDS011;4966;48.112;9.282;2022-08-21T03:39:49;23.92;;;0.95;;
9854;SDS011;4966;48.112;9.282;2022-08-21T03:42:15;38.38;;;1.45;;
9854;SDS011;4966;48.112;9.282;2022-08-21T03:44:40;25.23;;;2.53;;
9854;SDS011;4966;48.112;9.282;2022-08-21T03:47:06;29.42;;;1.45;;
9854;SDS011;4966;48.112;9.282;2022-08-21T03:49:31;13.48;;;1.20;;
9854;SDS011;4966;48.112;9.282;2022-08-21T03:51:58;16.17;;;1.20;;
9854;SDS011;4966;48.112;9.282;2022-08-21T03:54:23;32.65;;;1.30;;
9854;SDS011;4966;48.112;9.282;2022-08-21T03:56:49;17.48;;;1.30;;
9854;SDS011;4966;48.112;9.282;2022-08-21T03:59:15;18.05;;;1.10;;
9854;SDS011;4966;48.112;9.282;2022-08-21T04:01:50;20.75;;;1.52;;
9854;SDS011;4966;48.112;9.282;2022-08-21T04:04:17;11.98;;;1.02;;
9854;SDS011;4966;48.112;9.282;2022-08-21T04:06:42;11.05;;;1.23;;
9854;SDS011;4966;48.112;9.282;2022-08-21T04:09:07;6.05;;;1.00;;
9854;SDS011;4966;48.112;9.282;2022-08-21T04:11:33;12.15;;;1.13;;
9854;SDS011;4966;48.112;9.282;2022-08-21T04:13:58;8.30;;;1.48;;
9854;SDS011;4966;48.112;9.282;2022-08-21T04:16:24;5.72;;;1.15;;
9854;SDS011;4966;48.112;9.282;2022-08-21T04:18:49;6.63;;;0.82;;
9854;SDS011;4966;48.112;9.282;2022-08-21T04:21:14;53.20;;;3.03;;
9854;SDS011;4966;48.112;9.282;2022-08-21T04:23:40;5.32;;;0.90;;
9854;SDS011;4966;48.112;9.282;2022-08-21T04:26:05;11.57;;;1.02;;
9854;SDS011;4966;48.112;9.282;2022-08-21T04:28:31;2.00;;;1.20;;
9854;SDS011;4966;48.112;9.282;2022-08-21T04:30:57;3.28;;;0.90;;
9854;SDS011;4966;48.112;9.282;2022-08-21T04:33:22;3.35;;;0.75;;
9854;SDS011;4966;48.112;9.282;2022-08-21T04:35:49;1.33;;;0.68;;
9854;SDS011;4966;48.112;9.282;2022-08-21T04:38:15;4.47;;;1.05;;
9854;SDS011;4966;48.112;9.282;2022-08-21T04:40:40;21.35;;;1.83;;
9854;SDS011;4966;48.112;9.282;2022-08-21T04:43:07;23.00;;;1.17;;
9854;SDS011;4966;48.112;9.282;2022-08-21T04:45:35;22.00;;;1.70;;
9854;SDS011;4966;48.112;9.282;2022-08-21T04:48:04;22.33;;;2.60;;
9854;SDS011;4966;48.112;9.282;2022-08-21T04:50:36;51.22;;;2.38;;
9854;SDS011;4966;48.112;9.282;2022-08-21T04:53:06;83.28;;;4.00;;
9854;SDS011;4966;48.112;9.282;2022-08-21T04:55:35;31.13;;;1.83;;
9854;SDS011;4966;48.112;9.282;2022-08-21T04:58:02;30.20;;;1.55;;
9854;SDS011;4966;48.112;9.282;2022-08-21T05:00:30;32.05;;;2.42;;
9854;SDS011;4966;48.112;9.282;2022-08-21T05:02:55;12.52;;;1.40;;
9854;SDS011;4966;48.112;9.282;2022-08-21T05:05:25;6.40;;;1.00;;
9854;SDS011;4966;48.112;9.282;2022-08-21T05:10:20;10.88;;;0.88;;
9854;SDS011;4966;48.112;9.282;2022-08-21T05:12:47;20.27;;;2.55;;
9854;SDS011;4966;48.112;9.282;2022-08-21T05:15:14;16.23;;;1.10;;
9854;SDS011;4966;48.112;9.282;2022-08-21T05:17:40;6.30;;;1.25;;
9854;SDS011;4966;48.112;9.282;2022-08-21T05:20:07;10.48;;;1.10;;
9854;SDS011;4966;48.112;9.282;2022-08-21T05:22:33;8.90;;;1.10;;
9854;SDS011;4966;48.112;9.282;2022-08-21T05:24:59;2.28;;;0.85;;
9854;SDS011;4966;48.112;9.282;2022-08-21T05:27:24;1.60;;;0.90;;
9854;SDS011;4966;48.112;9.282;2022-08-21T05:29:50;1.77;;;1.10;;
9854;SDS011;4966;48.112;9.282;2022-08-21T05:32:15;2.45;;;1.10;;
9854;SDS011;4966;48.112;9.282;2022-08-21T05:34:41;2.65;;;1.00;;
9854;SDS011;4966;48.112;9.282;2022-08-21T05:37:06;2.55;;;1.20;;
9854;SDS011;4966;48.112;9.282;2022-08-21T05:39:32;2.35;;;1.42;;
9854;SDS011;4966;48.112;9.282;2022-08-21T05:41:57;2.20;;;1.40;;
9854;SDS011;4966;48.112;9.282;2022-08-21T05:44:23;3.67;;;1.17;;
9854;SDS011;4966;48.112;9.282;2022-08-21T05:46:48;3.33;;;1.50;;
9854;SDS011;4966;48.112;9.282;2022-08-21T05:49:13;2.17;;;1.23;;
9854;SDS011;4966;48.112;9.282;2022-08-21T05:51:39;3.40;;;1.13;;
9854;SDS011;4966;48.112;9.282;2022-08-21T05:54:05;2.65;;;1.50;;
9854;SDS011;4966;48.112;9.282;2022-08-21T05:56:31;1.95;;;1.08;;
9854;SDS011;4966;48.112;9.282;2022-08-21T05:58:56;3.22;;;1.25;;
9854;SDS011;4966;48.112;9.282;2022-08-21T06:01:23;2.35;;;1.02;;
9854;SDS011;4966;48.112;9.282;2022-08-21T06:03:48;7.32;;;1.10;;
9854;SDS011;4966;48.112;9.282;2022-08-21T06:06:14;2.40;;;1.45;;
9854;SDS011;4966;48.112;9.282;2022-08-21T06:08:39;1.88;;;1.10;;
9854;SDS011;4966;48.112;9.282;2022-08-21T06:11:05;1.63;;;1.10;;
9854;SDS011;4966;48.112;9.282;2022-08-21T06:13:31;1.77;;;1.17;;
9854;SDS011;4966;48.112;9.282;2022-08-21T06:16:15;1.95;;;1.20;;
9854;SDS011;4966;48.112;9.282;2022-08-21T06:18:41;3.60;;;1.38;;
9854;SDS011;4966;48.112;9.282;2022-08-21T06:21:08;2.80;;;1.50;;
9854;SDS011;4966;48.112;9.282;2022-08-21T06:23:34;2.55;;;1.35;;
9854;SDS011;4966;48.112;9.282;2022-08-21T06:26:00;1.98;;;1.30;;
9854;SDS011;4966;48.112;9.282;2022-08-21T06:28:26;2.25;;;1.60;;
9854;SDS011;4966;48.112;9.282;2022-08-21T06:30:52;2.33;;;1.60;;
9854;SDS011;4966;48.112;9.282;2022-08-21T06:33:17;4.97;;;1.52;;
9854;SDS011;4966;48.112;9.282;2022-08-21T06:35:43;3.28;;;1.50;;
9854;SDS011;4966;48.112;9.282;2022-08-21T06:38:08;3.85;;;1.58;;
9854;SDS011;4966;48.112;9.282;2022-08-21T06:40:34;3.97;;;1.77;;
9854;SDS011;4966;48.112;9.282;2022-08-21T06:43:10;4.97;;;2.10;;
9854;SDS011;4966;48.112;9.282;2022-08-21T06:45:38;3.22;;;1.70;;
9854;SDS011;4966;48.112;9.282;2022-08-21T06:48:04;4.97;;;1.90;;
9854;SDS011;4966;48.112;9.282;2022-08-21T06:50:32;3.20;;;1.65;;
9854;SDS011;4966;48.112;9.282;2022-08-21T06:53:11;2.78;;;1.48;;
9854;SDS011;4966;48.112;9.282;2022-08-21T06:55:39;2.83;;;1.50;;
9854;SDS011;4966;48.112;9.282;2022-08-21T06:58:05;3.30;;;1.90;;
9854;SDS011;4966;48.112;9.282;2022-08-21T07:00:32;4.13;;;1.60;;
9854;SDS011;4966;48.112;9.282;2022-08-21T07:02:57;4.57;;;2.20;;
9854;SDS011;4966;48.112;9.282;2022-08-21T07:05:26;4.38;;;2.05;;
9854;SDS011;4966;48.112;9.282;2022-08-21T07:07:53;5.60;;;2.03;;
9854;SDS011;4966;48.112;9.282;2022-08-21T07:10:19;3.67;;;1.88;;
9854;SDS011;4966;48.112;9.282;2022-08-21T07:12:44;4.80;;;1.90;;
9854;SDS011;4966;48.112;9.282;2022-08-21T07:15:10;4.20;;;2.22;;
9854;SDS011;4966;48.112;9.282;2022-08-21T07:17:36;7.13;;;2.58;;
9854;SDS011;4966;48.112;9.282;2022-08-21T07:20:02;10.02;;;2.42;;
9854;SDS011;4966;48.112;9.282;2022-08-21T07:22:28;7.78;;;2.22;;
9854;SDS011;4966;48.112;9.282;2022-08-21T07:24:54;7.97;;;2.65;;
9854;SDS011;4966;48.112;9.282;2022-08-21T07:27:19;6.32;;;2.33;;
9854;SDS011;4966;48.112;9.282;2022-08-21T07:29:45;4.50;;;2.28;;
9854;SDS011;4966;48.112;9.282;2022-08-21T07:32:10;4.05;;;2.38;;
9854;SDS011;4966;48.112;9.282;2022-08-21T07:34:36;5.18;;;2.50;;
9854;SDS011;4966;48.112;9.282;2022-08-21T07:37:01;5.80;;;2.10;;
9854;SDS011;4966;48.112;9.282;2022-08-21T07:39:26;8.13;;;2.25;;
9854;SDS011;4966;48.112;9.282;2022-08-21T07:41:52;4.93;;;2.00;;
9854;SDS011;4966;48.112;9.282;2022-08-21T07:44:17;6.32;;;2.55;;
9854;SDS011;4966;48.112;9.282;2022-08-21T07:46:42;4.28;;;1.80;;
9854;SDS011;4966;48.112;9.282;2022-08-21T07:49:08;5.22;;;1.95;;
9854;SDS011;4966;48.112;9.282;2022-08-21T07:51:33;4.40;;;2.10;;
9854;SDS011;4966;48.112;9.282;2022-08-21T07:53:59;4.55;;;2.00;;
9854;SDS011;4966;48.112;9.282;2022-08-21T07:56:24;5.75;;;2.00;;
9854;SDS011;4966;48.112;9.282;2022-08-21T07:58:50;5.22;;;2.30;;
9854;SDS011;4966;48.112;9.282;2022-08-21T08:01:16;5.55;;;2.13;;
9854;SDS011;4966;48.112;9.282;2022-08-21T08:03:42;7.45;;;2.50;;
9854;SDS011;4966;48.112;9.282;2022-08-21T08:06:08;10.27;;;2.40;;
9854;SDS011;4966;48.112;9.282;2022-08-21T08:08:37;6.68;;;2.30;;
9854;SDS011;4966;48.112;9.282;2022-08-21T08:11:06;7.22;;;2.70;;
9854;SDS011;4966;48.112;9.282;2022-08-21T08:13:37;7.45;;;2.58;;
9854;SDS011;4966;48.112;9.282;2022-08-21T08:16:04;6.90;;;2.53;;
9854;SDS011;4966;48.112;9.282;2022-08-21T08:18:29;7.18;;;2.80;;
9854;SDS011;4966;48.112;9.282;2022-08-21T08:20:55;5.75;;;2.70;;
9854;SDS011;4966;48.112;9.282;2022-08-21T08:23:20;6.95;;;3.40;;
9854;SDS011;4966;48.112;9.282;2022-08-21T08:25:47;6.60;;;2.80;;
9854;SDS011;4966;48.112;9.282;2022-08-21T08:28:13;4.63;;;2.70;;
9854;SDS011;4966;48.112;9.282;2022-08-21T08:30:38;5.82;;;2.83;;
9854;SDS011;4966;48.112;9.282;2022-08-21T08:33:04;6.22;;;2.72;;
9854;SDS011;4966;48.112;9.282;2022-08-21T08:35:29;7.03;;;2.70;;
9854;SDS011;4966;48.112;9.282;2022-08-21T08:37:55;8.48;;;3.00;;
9854;SDS011;4966;48.112;9.282;2022-08-21T08:40:22;4.65;;;2.10;;
9854;SDS011;4966;48.112;9.282;2022-08-21T08:42:55;4.45;;;2.00;;
9854;SDS011;4966;48.112;9.282;2022-08-21T08:45:21;4.82;;;2.20;;
9854;SDS011;4966;48.112;9.282;2022-08-21T08:47:52;8.07;;;2.80;;
9854;SDS011;4966;48.112;9.282;2022-08-21T08:51:06;9.95;;;2.72;;
9854;SDS011;4966;48.112;9.282;2022-08-21T08:55:47;5.90;;;2.15;;
9854;SDS011;4966;48.112;9.282;2022-08-21T08:58:20;3.63;;;2.10;;
9854;SDS011;4966;48.112;9.282;2022-08-21T09:00:50;10.98;;;1.98;;
9854;SDS011;4966;48.112;9.282;2022-08-21T09:03:17;4.38;;;2.00;;
9854;SDS011;4966;48.112;9.282;2022-08-21T09:05:47;5.10;;;2.10;;
9854;SDS011;4966;48.112;9.282;2022-08-21T09:08:24;2.80;;;1.58;;
9854;SDS011;4966;48.112;9.282;2022-08-21T09:11:23;4.47;;;1.83;;
9854;SDS011;4966;48.112;9.282;2022-08-21T09:22:48;5.55;;;1.63;;
9854;SDS011;4966;48.112;9.282;2022-08-21T09:25:02;10.00;;;1.77;;
9854;SDS011;4966;48.112;9.282;2022-08-21T09:27:32;5.90;;;1.60;;
9854;SDS011;4966;48.112;9.282;2022-08-21T09:29:58;3.15;;;1.70;;
9854;SDS011;4966;48.112;9.282;2022-08-21T09:32:25;4.28;;;1.60;;
9854;SDS011;4966;48.112;9.282;2022-08-21T09:38:11;4.88;;;1.70;;
9854;SDS011;4966;48.112;9.282;2022-08-21T09:43:02;2.92;;;1.63;;
9854;SDS011;4966;48.112;9.282;2022-08-21T09:45:41;4.82;;;1.70;;
9854;SDS011;4966;48.112;9.282;2022-08-21T09:48:09;5.10;;;1.90;;
9854;SDS011;4966;48.112;9.282;2022-08-21T09:50:40;3.97;;;1.55;;
9854;SDS011;4966;48.112;9.282;2022-08-21T09:53:21;4.13;;;1.70;;
9854;SDS011;4966;48.112;9.282;2022-08-21T09:56:37;3.92;;;1.70;;
9854;SDS011;4966;48.112;9.282;2022-08-21T09:59:17;4.32;;;1.60;;
9854;SDS011;4966;48.112;9.282;2022-08-21T10:01:50;3.30;;;1.60;;
9854;SDS011;4966;48.112;9.282;2022-08-21T10:06:48;3.63;;;1.80;;
9854;SDS011;4966;48.112;9.282;2022-08-21T10:09:15;5.22;;;1.45;;
9854;SDS011;4966;48.112;9.282;2022-08-21T10:11:48;5.32;;;1.90;;
9854;SDS011;4966;48.112;9.282;2022-08-21T10:14:33;5.05;;;1.75;;
9854;SDS011;4966;48.112;9.282;2022-08-21T10:19:40;4.90;;;1.95;;
9854;SDS011;4966;48.112;9.282;2022-08-21T10:27:36;6.72;;;1.80;;
9854;SDS011;4966;48.112;9.282;2022-08-21T10:31:00;3.55;;;1.40;;
9854;SDS011;4966;48.112;9.282;2022-08-21T10:33:28;7.03;;;1.70;;
9854;SDS011;4966;48.112;9.282;2022-08-21T10:39:31;4.43;;;1.40;;
9854;SDS011;4966;48.112;9.282;2022-08-21T10:53:19;4.53;;;1.63;;
9854;SDS011;4966;48.112;9.282;2022-08-21T10:55:58;3.67;;;1.42;;
9854;SDS011;4966;48.112;9.282;2022-08-21T10:58:30;3.70;;;1.27;;
9854;SDS011;4966;48.112;9.282;2022-08-21T11:01:12;4.82;;;1.70;;
9854;SDS011;4966;48.112;9.282;2022-08-21T11:03:44;3.13;;;1.40;;
9854;SDS011;4966;48.112;9.282;2022-08-21T11:08:57;3.88;;;1.27;;
9854;SDS011;4966;48.112;9.282;2022-08-21T11:11:41;2.95;;;1.30;;
9854;SDS011;4966;48.112;9.282;2022-08-21T11:17:18;2.65;;;1.27;;
9854;SDS011;4966;48.112;9.282;2022-08-21T11:20:09;3.00;;;1.20;;
9854;SDS011;4966;48.112;9.282;2022-08-21T11:22:46;3.13;;;1.40;;
9854;SDS011;4966;48.112;9.282;2022-08-21T11:25:27;6.80;;;1.30;;
9854;SDS011;4966;48.112;9.282;2022-08-21T11:28:06;5.65;;;1.58;;
9854;SDS011;4966;48.112;9.282;2022-08-21T11:38:57;4.25;;;1.63;;
9854;SDS011;4966;48.112;9.282;2022-08-21T11:41:36;4.00;;;1.65;;
9854;SDS011;4966;48.112;9.282;2022-08-21T11:58:01;2.00;;;1.20;;
9854;SDS011;4966;48.112;9.282;2022-08-21T12:00:43;5.35;;;1.35;;
9854;SDS011;4966;48.112;9.282;2022-08-21T12:03:15;4.00;;;1.40;;
9854;SDS011;4966;48.112;9.282;2022-08-21T12:06:01;3.17;;;1.30;;
9854;SDS011;4966;48.112;9.282;2022-08-21T12:08:40;2.55;;;1.40;;
9854;SDS011;4966;48.112;9.282;2022-08-21T12:13:37;3.75;;;1.50;;
9854;SDS011;4966;48.112;9.282;2022-08-21T12:16:28;2.67;;;1.10;;
9854;SDS011;4966;48.112;9.282;2022-08-21T12:21:31;3.15;;;1.20;;
9854;SDS011;4966;48.112;9.282;2022-08-21T12:24:02;4.57;;;1.00;;
9854;SDS011;4966;48.112;9.282;2022-08-21T12:26:30;4.80;;;1.40;;
9854;SDS011;4966;48.112;9.282;2022-08-21T12:29:15;3.22;;;1.20;;
9854;SDS011;4966;48.112;9.282;2022-08-21T12:31:56;4.07;;;1.20;;
9854;SDS011;4966;48.112;9.282;2022-08-21T12:34:31;4.03;;;1.52;;
9854;SDS011;4966;48.112;9.282;2022-08-21T12:37:02;4.75;;;1.50;;
9854;SDS011;4966;48.112;9.282;2022-08-21T12:39:32;1.85;;;1.20;;
9854;SDS011;4966;48.112;9.282;2022-08-21T12:44:34;2.97;;;1.20;;
9854;SDS011;4966;48.112;9.282;2022-08-21T12:49:46;2.22;;;1.13;;
9854;SDS011;4966;48.112;9.282;2022-08-21T12:52:35;5.75;;;1.30;;
9854;SDS011;4966;48.112;9.282;2022-08-21T12:55:06;2.95;;;1.30;;
9854;SDS011;4966;48.112;9.282;2022-08-21T12:57:36;3.67;;;1.42;;
9854;SDS011;4966;48.112;9.282;2022-08-21T13:00:04;2.90;;;1.23;;
9854;SDS011;4966;48.112;9.282;2022-08-21T13:02:43;3.53;;;1.80;;
9854;SDS011;4966;48.112;9.282;2022-08-21T13:05:14;4.35;;;1.50;;
9854;SDS011;4966;48.112;9.282;2022-08-21T13:07:54;2.13;;;1.30;;
9854;SDS011;4966;48.112;9.282;2022-08-21T13:10:27;3.42;;;1.50;;
9854;SDS011;4966;48.112;9.282;2022-08-21T13:12:56;3.75;;;1.30;;
9854;SDS011;4966;48.112;9.282;2022-08-21T13:15:31;4.65;;;1.20;;
9854;SDS011;4966;48.112;9.282;2022-08-21T13:17:59;3.13;;;1.20;;
9854;SDS011;4966;48.112;9.282;2022-08-21T13:20:29;2.63;;;1.33;;
9854;SDS011;4966;48.112;9.282;2022-08-21T13:22:55;2.05;;;1.20;;
9854;SDS011;4966;48.112;9.282;2022-08-21T13:25:21;2.22;;;1.40;;
9854;SDS011;4966;48.112;9.282;2022-08-21T13:27:59;6.22;;;1.30;;
9854;SDS011;4966;48.112;9.282;2022-08-21T13:30:29;3.78;;;1.15;;
9854;SDS011;4966;48.112;9.282;2022-08-21T13:32:57;3.42;;;1.40;;
9854;SDS011;4966;48.112;9.282;2022-08-21T13:36:11;3.75;;;1.48;;
9854;SDS011;4966;48.112;9.282;2022-08-21T13:38:16;2.20;;;1.30;;
9854;SDS011;4966;48.112;9.282;2022-08-21T13:40:49;3.08;;;1.35;;
9854;SDS011;4966;48.112;9.282;2022-08-21T13:43:28;2.83;;;1.30;;
9854;SDS011;4966;48.112;9.282;2022-08-21T13:48:25;2.38;;;1.35;;
9854;SDS011;4966;48.112;9.282;2022-08-21T13:50:52;2.58;;;1.50;;
9854;SDS011;4966;48.112;9.282;2022-08-21T13:55:50;7.10;;;1.52;;
9854;SDS011;4966;48.112;9.282;2022-08-21T13:58:26;2.60;;;1.30;;
9854;SDS011;4966;48.112;9.282;2022-08-21T14:00:57;3.80;;;1.35;;
9854;SDS011;4966;48.112;9.282;2022-08-21T14:03:33;2.80;;;1.50;;
9854;SDS011;4966;48.112;9.282;2022-08-21T14:06:19;2.75;;;1.40;;
9854;SDS011;4966;48.112;9.282;2022-08-21T14:08:54;3.03;;;1.50;;
9854;SDS011;4966;48.112;9.282;2022-08-21T14:11:26;3.97;;;1.50;;
9854;SDS011;4966;48.112;9.282;2022-08-21T14:13:58;4.28;;;1.40;;
9854;SDS011;4966;48.112;9.282;2022-08-21T14:16:40;3.63;;;1.48;;
9854;SDS011;4966;48.112;9.282;2022-08-21T14:19:09;3.53;;;1.50;;
9854;SDS011;4966;48.112;9.282;2022-08-21T14:21:44;3.30;;;1.30;;
9854;SDS011;4966;48.112;9.282;2022-08-21T14:24:12;3.10;;;1.30;;
9854;SDS011;4966;48.112;9.282;2022-08-21T14:29:17;2.30;;;1.33;;
9854;SDS011;4966;48.112;9.282;2022-08-21T14:31:49;3.38;;;1.48;;
9854;SDS011;4966;48.112;9.282;2022-08-21T14:34:20;2.28;;;1.40;;
9854;SDS011;4966;48.112;9.282;2022-08-21T14:36:47;2.40;;;1.25;;
9854;SDS011;4966;48.112;9.282;2022-08-21T14:39:14;3.85;;;1.40;;
9854;SDS011;4966;48.112;9.282;2022-08-21T14:41:40;3.05;;;1.38;;
9854;SDS011;4966;48.112;9.282;2022-08-21T14:44:07;3.92;;;1.52;;
9854;SDS011;4966;48.112;9.282;2022-08-21T14:46:33;3.65;;;1.38;;
9854;SDS011;4966;48.112;9.282;2022-08-21T14:49:00;2.05;;;1.30;;
9854;SDS011;4966;48.112;9.282;2022-08-21T14:51:26;2.65;;;1.63;;
9854;SDS011;4966;48.112;9.282;2022-08-21T14:53:51;2.65;;;1.27;;
9854;SDS011;4966;48.112;9.282;2022-08-21T14:56:17;3.72;;;1.33;;
9854;SDS011;4966;48.112;9.282;2022-08-21T14:58:44;2.50;;;1.15;;
9854;SDS011;4966;48.112;9.282;2022-08-21T15:01:14;2.83;;;1.20;;
9854;SDS011;4966;48.112;9.282;2022-08-21T15:03:41;2.95;;;1.40;;
9854;SDS011;4966;48.112;9.282;2022-08-21T15:06:07;2.65;;;1.40;;
9854;SDS011;4966;48.112;9.282;2022-08-21T15:08:33;2.67;;;1.20;;
9854;SDS011;4966;48.112;9.282;2022-08-21T15:10:59;5.10;;;1.50;;
9854;SDS011;4966;48.112;9.282;2022-08-21T15:13:25;2.45;;;1.33;;
9854;SDS011;4966;48.112;9.282;2022-08-21T15:15:52;4.35;;;1.48;;
9854;SDS011;4966;48.112;9.282;2022-08-21T15:18:21;2.22;;;1.20;;
9854;SDS011;4966;48.112;9.282;2022-08-21T15:20:47;3.25;;;1.50;;
9854;SDS011;4966;48.112;9.282;2022-08-21T15:23:13;3.47;;;1.33;;
9854;SDS011;4966;48.112;9.282;2022-08-21T15:25:40;4.90;;;1.30;;
9854;SDS011;4966;48.112;9.282;2022-08-21T15:28:07;2.95;;;1.30;;
9854;SDS011;4966;48.112;9.282;2022-08-21T15:30:33;2.72;;;1.23;;
9854;SDS011;4966;48.112;9.282;2022-08-21T15:33:00;4.50;;;1.30;;
9854;SDS011;4966;48.112;9.282;2022-08-21T15:35:25;3.20;;;1.40;;
9854;SDS011;4966;48.112;9.282;2022-08-21T15:37:51;4.32;;;1.35;;
9854;SDS011;4966;48.112;9.282;2022-08-21T15:40:16;3.47;;;1.60;;
9854;SDS011;4966;48.112;9.282;2022-08-21T15:42:42;4.50;;;1.40;;
9854;SDS011;4966;48.112;9.282;2022-08-21T15:45:08;2.53;;;1.20;;
9854;SDS011;4966;48.112;9.282;2022-08-21T15:47:36;1.95;;;1.30;;
9854;SDS011;4966;48.112;9.282;2022-08-21T15:50:04;5.50;;;1.33;;
9854;SDS011;4966;48.112;9.282;2022-08-21T15:52:32;3.22;;;1.40;;
9854;SDS011;4966;48.112;9.282;2022-08-21T15:54:57;4.93;;;1.58;;
9854;SDS011;4966;48.112;9.282;2022-08-21T15:57:23;3.55;;;1.40;;
9854;SDS011;4966;48.112;9.282;2022-08-21T15:59:50;3.00;;;1.20;;
9854;SDS011;4966;48.112;9.282;2022-08-21T16:02:22;2.08;;;1.20;;
9854;SDS011;4966;48.112;9.282;2022-08-21T16:04:50;2.83;;;1.33;;
9854;SDS011;4966;48.112;9.282;2022-08-21T16:07:16;2.60;;;1.20;;
9854;SDS011;4966;48.112;9.282;2022-08-21T16:09:42;5.00;;;1.40;;
9854;SDS011;4966;48.112;9.282;2022-08-21T16:12:09;3.83;;;1.40;;
9854;SDS011;4966;48.112;9.282;2022-08-21T16:14:38;2.10;;;1.15;;
9854;SDS011;4966;48.112;9.282;2022-08-21T16:17:05;2.70;;;1.45;;
9854;SDS011;4966;48.112;9.282;2022-08-21T16:19:31;2.88;;;1.48;;
9854;SDS011;4966;48.112;9.282;2022-08-21T16:21:57;3.10;;;1.42;;
9854;SDS011;4966;48.112;9.282;2022-08-21T16:24:23;2.70;;;1.50;;
9854;SDS011;4966;48.112;9.282;2022-08-21T16:26:48;3.65;;;1.40;;
9854;SDS011;4966;48.112;9.282;2022-08-21T16:29:14;4.93;;;1.50;;
9854;SDS011;4966;48.112;9.282;2022-08-21T16:31:40;4.53;;;1.40;;
9854;SDS011;4966;48.112;9.282;2022-08-21T16:34:06;3.05;;;1.42;;
9854;SDS011;4966;48.112;9.282;2022-08-21T16:36:35;3.03;;;1.33;;
9854;SDS011;4966;48.112;9.282;2022-08-21T16:39:00;2.63;;;1.27;;
9854;SDS011;4966;48.112;9.282;2022-08-21T16:41:27;5.60;;;1.30;;
9854;SDS011;4966;48.112;9.282;2022-08-21T16:43:55;5.43;;;1.90;;
9854;SDS011;4966;48.112;9.282;2022-08-21T16:46:20;4.95;;;1.30;;
9854;SDS011;4966;48.112;9.282;2022-08-21T16:48:46;2.75;;;1.40;;
9854;SDS011;4966;48.112;9.282;2022-08-21T16:51:12;4.32;;;1.60;;
9854;SDS011;4966;48.112;9.282;2022-08-21T16:53:39;3.65;;;1.65;;
9854;SDS011;4966;48.112;9.282;2022-08-21T16:56:05;3.22;;;1.50;;